This is the latest recevied weather packets stored in our database for station/object KC1DMA. If no packets are shown the sender has not sent any weather packets the latest 1 day(s).
| Time | Temp. | Humidity | Pressure | Rain* | Wind** | Luminosity | Snow |
|---|---|---|---|---|---|---|---|
| 1836274645 | 17.22° C | 59% | 1021.3 hPa | 0 mm | 0.89 m/s, 43° | 0 W/m² | - |
| 1836274498 | 16.67° C | 60% | 1021.5 hPa | 0 mm | 0.89 m/s, 54° | 0 W/m² | - |
| 1836274343 | 17.22° C | 58% | 1021.3 hPa | 0 mm | 0 m/s | 0 W/m² | - |
| 1836274197 | 17.22° C | 59% | 1021.3 hPa | 0 mm | 0.45 m/s, 80° | 0 W/m² | - |
| 1836274042 | 17.78° C | 56% | 1021 hPa | 0 mm | 1.79 m/s, 29° | 0 W/m² | - |
| 1778051586 | 13.89° C | 86% | 1012.3 hPa | - | 0.89 m/s, 2° | 0 W/m² | - |
| 1778051282 | 13.89° C | 86% | 1012.5 hPa | - | 3.13 m/s, 165° | 0 W/m² | - |
| 1778050979 | 13.89° C | 85% | 1012.4 hPa | - | 1.79 m/s, 119° | 0 W/m² | - |
| 1778050676 | 13.89° C | 85% | 1012.6 hPa | - | 2.24 m/s, 98° | 0 W/m² | - |
| 1778050373 | 13.89° C | 85% | 1012.3 hPa | - | 1.79 m/s, 98° | 0 W/m² | - |
| 1778050070 | 14.44° C | 85% | 1012.5 hPa | - | 2.24 m/s, 103° | 0 W/m² | - |
| 1778049765 | 14.44° C | 84% | 1012.4 hPa | - | 1.79 m/s, 193° | 0 W/m² | - |
| 1778049463 | 14.44° C | 84% | 1012.4 hPa | - | 0.45 m/s, 169° | 0 W/m² | - |
| 1778049161 | 14.44° C | 84% | 1012.3 hPa | - | 0.89 m/s, 4° | 0 W/m² | - |
| 1778048859 | 14.44° C | 84% | 1012.4 hPa | - | 2.68 m/s, 172° | 0 W/m² | - |
| 1778048556 | 14.44° C | 84% | 1012.4 hPa | - | 1.79 m/s, 146° | 0 W/m² | - |
| 1778048252 | 14.44° C | 84% | 1012.4 hPa | - | 1.79 m/s, 10° | 0 W/m² | - |
| 1778047950 | 14.44° C | 84% | 1012.2 hPa | - | 3.13 m/s, 189° | 0 W/m² | - |
| 1778047648 | 14.44° C | 83% | 1012.4 hPa | - | 1.34 m/s, 123° | 0 W/m² | - |
| 1778047345 | 14.44° C | 83% | 1012.4 hPa | - | 1.34 m/s, 112° | 0 W/m² | - |
| 1778047041 | 14.44° C | 83% | 1012.5 hPa | - | 1.79 m/s, 155° | 0 W/m² | - |
| 1778046738 | 14.44° C | 83% | 1012.5 hPa | - | 2.68 m/s, 127° | 0 W/m² | - |
| 1778046435 | 15° C | 82% | 1012.4 hPa | - | 4.47 m/s, 150° | 0 W/m² | - |
| 1778046131 | 15° C | 82% | 1012.5 hPa | - | 0 m/s | 0 W/m² | - |
| 1778045829 | 15° C | 82% | 1012.6 hPa | - | 2.68 m/s, 127° | 0 W/m² | - |
* Rain latest hour (hover to see other rain measurements)
** Current wind speed in m/s (hover to see current wind gust speed)